createdAt,value
2023-05-21T00:02:12.079Z,100570.22
2023-05-21T00:04:44.011Z,100569.34
2023-05-21T00:07:13.018Z,100558.28
2023-05-21T00:09:41.529Z,100564.88
2023-05-21T00:12:10.271Z,100558.13
2023-05-21T00:14:38.549Z,100562.34
2023-05-21T00:17:07.197Z,100561.47
2023-05-21T00:19:36.118Z,100557.84
2023-05-21T00:22:04.820Z,100556.03
2023-05-21T00:24:33.210Z,100552.53
2023-05-21T00:27:01.829Z,100549.16
2023-05-21T00:29:30.337Z,100542.00
2023-05-21T00:31:59.105Z,100542.81
2023-05-21T00:34:27.540Z,100548.16
2023-05-21T00:36:56.118Z,100540.31
2023-05-21T00:39:25.494Z,100538.50
2023-05-21T00:41:57.171Z,100538.50
2023-05-21T00:44:25.733Z,100526.44
2023-05-21T00:46:54.355Z,100531.47
2023-05-21T00:49:26.121Z,100515.75
2023-05-21T00:51:55.114Z,100524.16
2023-05-21T00:54:23.996Z,100521.66
2023-05-21T00:56:52.654Z,100525.16
2023-05-21T00:59:20.990Z,100519.00
2023-05-21T01:01:56.184Z,100512.09
2023-05-21T01:04:24.645Z,100521.78
2023-05-21T01:06:53.715Z,100514.63
2023-05-21T01:09:22.116Z,100518.13
2023-05-21T01:11:51.297Z,100504.41
2023-05-21T01:14:19.969Z,100517.72
2023-05-21T01:16:49.906Z,100504.41
2023-05-21T01:19:23.817Z,100518.31
2023-05-21T01:21:56.912Z,100506.25
2023-05-21T01:24:25.297Z,100521.94
2023-05-21T01:26:54.003Z,100526.44
2023-05-21T01:29:22.530Z,100514.06
2023-05-21T01:32:18.791Z,100515.75
2023-05-21T01:35:10.560Z,100518.56
2023-05-21T01:37:52.293Z,100516.91
2023-05-21T01:40:31.426Z,100513.69
2023-05-21T01:43:00.478Z,100511.56
2023-05-21T01:45:30.017Z,100510.72
2023-05-21T01:47:58.850Z,100513.38
2023-05-21T01:55:28.560Z,100502.16
2023-05-21T01:57:57.064Z,100503.72
2023-05-21T02:00:31.102Z,100504.69
2023-05-21T02:03:00.008Z,100504.81
2023-05-21T02:05:28.795Z,100503.00
2023-05-21T02:08:00.209Z,100498.50
2023-05-21T02:10:28.924Z,100489.69
2023-05-21T02:12:57.277Z,100490.53
2023-05-21T02:15:26.254Z,100493.88
2023-05-21T02:17:55.921Z,100496.53
2023-05-21T02:20:24.846Z,100487.28
2023-05-21T02:22:53.157Z,100485.88
2023-05-21T02:25:21.794Z,100485.47
2023-05-21T02:27:54.065Z,100468.94
2023-05-21T02:30:22.798Z,100487.84
2023-05-21T02:32:51.085Z,100478.03
2023-05-21T02:35:20.025Z,100476.19
2023-05-21T02:37:49.295Z,100476.50
2023-05-21T02:40:17.988Z,100467.66
2023-05-21T02:42:46.251Z,100474.38
2023-05-21T02:45:20.535Z,100474.38
2023-05-21T02:47:49.321Z,100465.84
2023-05-21T02:50:22.601Z,100469.06
2023-05-21T02:53:00.142Z,100463.72
2023-05-21T02:55:29.559Z,100452.19
2023-05-21T02:57:57.908Z,100451.38
2023-05-21T03:00:26.545Z,100448.69
2023-05-21T03:02:54.946Z,100447.03
2023-05-21T03:05:24.577Z,100453.19
2023-05-21T03:07:53.735Z,100444.38
2023-05-21T03:10:25.925Z,100451.38
2023-05-21T03:12:55.080Z,100454.03
2023-05-21T03:15:24.522Z,100457.69
2023-05-21T03:17:54.608Z,100452.38
2023-05-21T03:20:25.708Z,100453.34
2023-05-21T03:22:55.271Z,100453.34
2023-05-21T03:25:25.471Z,100450.66
2023-05-21T03:27:55.837Z,100457.69
2023-05-21T03:30:46.689Z,100443.81
2023-05-21T03:33:38.242Z,100441.69
2023-05-21T03:36:21.821Z,100442.69
2023-05-21T03:38:50.231Z,100441.00
2023-05-21T03:41:19.194Z,100447.31
2023-05-21T03:43:52.158Z,100431.31
2023-05-21T03:46:23.610Z,100432.16
2023-05-21T03:49:08.322Z,100437.47
2023-05-21T03:51:39.807Z,100437.47
2023-05-21T03:54:10.000Z,100441.16
2023-05-21T03:56:39.835Z,100441.97
2023-05-21T03:59:08.082Z,100437.47
2023-05-21T04:01:37.305Z,100439.19
2023-05-21T04:04:06.398Z,100441.16
2023-05-21T04:06:35.283Z,100441.16
2023-05-21T04:09:03.767Z,100440.31
2023-05-21T04:11:32.460Z,100444.78
2023-05-21T04:14:01.455Z,100444.94
2023-05-21T04:16:31.381Z,100447.31
2023-05-21T04:18:59.852Z,100443.81
2023-05-21T04:21:29.592Z,100456.13
2023-05-21T04:24:01.266Z,100458.97
2023-05-21T04:26:52.840Z,100450.97
2023-05-21T04:29:21.601Z,100449.28
2023-05-21T04:31:51.986Z,100452.94
2023-05-21T04:34:20.372Z,100443.25
2023-05-21T04:36:50.060Z,100445.66
2023-05-21T04:39:18.438Z,100453.63
2023-05-21T04:41:47.170Z,100456.31
2023-05-21T04:44:16.909Z,100462.47
2023-05-21T04:46:49.307Z,100448.31
2023-05-21T04:49:21.230Z,100451.81
2023-05-21T04:51:49.852Z,100456.31
2023-05-21T04:54:18.177Z,100461.63
2023-05-21T04:56:47.639Z,100464.31
2023-05-21T04:59:17.019Z,100457.28
2023-05-21T05:01:45.660Z,100447.72
2023-05-21T05:04:14.012Z,100463.44
2023-05-21T05:06:42.963Z,100450.97
2023-05-21T05:09:11.510Z,100462.47
2023-05-21T05:11:40.071Z,100459.94
2023-05-21T05:14:08.400Z,100457.97
2023-05-21T05:16:37.186Z,100465.97
2023-05-21T05:19:05.625Z,100454.59
2023-05-21T05:21:34.839Z,100473.97
2023-05-21T05:24:03.271Z,100468.63
2023-05-21T05:26:33.820Z,100470.47
2023-05-21T05:29:02.242Z,100457.41
2023-05-21T05:31:31.353Z,100464.31
2023-05-21T05:33:59.961Z,100465.13
2023-05-21T05:36:28.641Z,100479.28
2023-05-21T05:38:57.225Z,100472.31
2023-05-21T05:41:27.391Z,100465.28
2023-05-21T05:43:57.420Z,100470.59
2023-05-21T05:46:29.863Z,100461.91
2023-05-21T05:48:58.432Z,100470.84
2023-05-21T05:51:27.030Z,100476.75
2023-05-21T05:53:55.652Z,100468.63
2023-05-21T05:56:24.411Z,100477.63
2023-05-21T05:58:52.838Z,100465.50
2023-05-21T06:01:24.852Z,100476.34
2023-05-21T06:03:53.786Z,100474.66
2023-05-21T06:06:22.553Z,100469.47
2023-05-21T06:08:51.096Z,100478.03
2023-05-21T06:11:21.764Z,100462.47
2023-05-21T06:13:50.145Z,100478.03
2023-05-21T06:16:20.194Z,100468.06
2023-05-21T06:18:48.627Z,100468.06
2023-05-21T06:21:17.599Z,100473.25
2023-05-21T06:23:47.259Z,100471.59
2023-05-21T06:26:19.484Z,100479.41
2023-05-21T06:28:50.318Z,100472.28
2023-05-21T06:31:22.632Z,100476.75
2023-05-21T06:33:51.453Z,100477.63
2023-05-21T06:36:20.592Z,100473.25
2023-05-21T06:38:49.729Z,100475.66
2023-05-21T06:41:18.411Z,100482.63
2023-05-21T06:43:56.981Z,100480.66
2023-05-21T06:46:44.302Z,100475.47
2023-05-21T06:49:14.450Z,100476.91
2023-05-21T06:51:44.836Z,100488.25
2023-05-21T06:54:14.707Z,100478.28
2023-05-21T06:56:44.027Z,100480.78
2023-05-21T06:59:12.731Z,100479.00
2023-05-21T07:01:42.763Z,100488.66
2023-05-21T07:04:11.624Z,100485.97
2023-05-21T07:06:42.304Z,100492.00
2023-05-21T07:09:10.807Z,100483.03
2023-05-21T07:11:40.507Z,100482.03
2023-05-21T07:14:10.228Z,100482.91
2023-05-21T07:16:40.336Z,100485.84
2023-05-21T07:19:09.792Z,100482.59
2023-05-21T07:21:38.652Z,100478.25
2023-05-21T07:24:09.171Z,100481.19
2023-05-21T07:26:41.386Z,100480.59
2023-05-21T07:29:10.109Z,100473.84
2023-05-21T07:31:38.876Z,100471.03
2023-05-21T07:34:08.193Z,100474.25
2023-05-21T07:36:37.192Z,100471.28
2023-05-21T07:39:05.726Z,100477.28
2023-05-21T07:41:34.712Z,100477.53
2023-05-21T07:44:07.286Z,100478.38
2023-05-21T07:46:40.178Z,100480.56
2023-05-21T07:49:17.057Z,100479.69
2023-05-21T07:51:48.195Z,100479.53
2023-05-21T07:54:17.589Z,100479.53
2023-05-21T07:56:46.936Z,100487.78
2023-05-21T07:59:29.567Z,100485.81
2023-05-21T08:01:58.452Z,100484.09
2023-05-21T08:04:27.338Z,100484.31
2023-05-21T08:06:56.643Z,100482.31
2023-05-21T08:09:25.785Z,100486.09
2023-05-21T08:11:54.515Z,100488.47
2023-05-21T08:14:22.961Z,100488.28
2023-05-21T08:16:52.693Z,100491.75
2023-05-21T08:19:21.350Z,100493.28
2023-05-21T08:21:52.763Z,100498.69
2023-05-21T08:24:23.821Z,100489.69
2023-05-21T08:26:53.415Z,100488.06
2023-05-21T08:29:22.071Z,100494.78
2023-05-21T08:31:51.037Z,100492.81
2023-05-21T08:34:19.919Z,100491.28
2023-05-21T08:36:57.411Z,100496.16
2023-05-21T08:39:44.422Z,100493.88
2023-05-21T08:42:40.793Z,100492.22
2023-05-21T08:45:12.618Z,100490.25
2023-05-21T08:47:44.901Z,100489.84
2023-05-21T08:50:19.870Z,100495.38
2023-05-21T08:52:50.796Z,100497.16
2023-05-21T08:55:19.317Z,100494.94
2023-05-21T08:57:48.329Z,100485.41
2023-05-21T09:00:21.427Z,100487.16
2023-05-21T09:02:51.306Z,100488.28
2023-05-21T09:05:20.879Z,100480.66
2023-05-21T09:08:07.163Z,100484.50
2023-05-21T09:10:51.644Z,100478.69
2023-05-21T09:13:23.148Z,100479.50
2023-05-21T09:15:52.509Z,100478.41
2023-05-21T09:18:22.674Z,100484.72
2023-05-21T09:21:26.813Z,100482.03
2023-05-21T09:24:00.154Z,100483.13
2023-05-21T09:26:28.679Z,100484.78
2023-05-21T09:29:01.761Z,100480.06
2023-05-21T09:31:30.427Z,100483.94
2023-05-21T09:33:59.369Z,100484.56
2023-05-21T09:36:29.895Z,100468.06
2023-05-21T09:39:00.372Z,100488.88
2023-05-21T09:41:33.930Z,100477.28
2023-05-21T09:44:02.923Z,100485.59
2023-05-21T09:46:40.837Z,100485.06
2023-05-21T09:49:26.594Z,100479.38
2023-05-21T09:51:59.013Z,100477.16
2023-05-21T09:54:33.499Z,100477.59
2023-05-21T09:57:04.863Z,100475.81
2023-05-21T09:59:39.583Z,100483.94
2023-05-21T10:02:22.161Z,100473.69
2023-05-21T10:04:52.005Z,100475.69
2023-05-21T10:07:26.127Z,100485.47
2023-05-21T10:09:58.472Z,100484.81
2023-05-21T10:12:29.749Z,100491.91
2023-05-21T10:15:04.048Z,100488.34
2023-05-21T10:17:32.362Z,100496.16
2023-05-21T10:20:01.841Z,100493.28
2023-05-21T10:22:30.140Z,100485.22
2023-05-21T10:24:58.814Z,100491.88
2023-05-21T10:27:28.434Z,100485.88
2023-05-21T10:29:59.562Z,100473.44
2023-05-21T10:32:28.188Z,100480.06
2023-05-21T10:34:59.326Z,100477.88
2023-05-21T10:37:29.487Z,100478.44
2023-05-21T10:39:58.483Z,100484.72
2023-05-21T10:42:32.855Z,100484.16
2023-05-21T10:45:26.055Z,100477.81
2023-05-21T10:48:06.847Z,100472.88
2023-05-21T10:50:54.204Z,100473.34
2023-05-21T10:53:31.576Z,100477.53
2023-05-21T10:56:31.063Z,100464.91
2023-05-21T10:59:12.714Z,100471.75
2023-05-21T11:01:41.954Z,100464.22
2023-05-21T11:04:12.422Z,100461.13
2023-05-21T11:06:41.279Z,100471.41
2023-05-21T11:09:16.202Z,100464.41
2023-05-21T11:11:52.501Z,100462.38
2023-05-21T11:14:28.809Z,100457.94
2023-05-21T11:16:58.837Z,100457.41
2023-05-21T11:19:38.476Z,100452.06
2023-05-21T11:22:09.545Z,100457.25
2023-05-21T11:24:41.856Z,100449.53
2023-05-21T11:27:12.662Z,100455.94
2023-05-21T11:29:44.792Z,100457.16
2023-05-21T11:32:15.849Z,100452.44
2023-05-21T11:34:48.564Z,100454.63
2023-05-21T11:37:23.584Z,100458.63
2023-05-21T11:39:52.485Z,100453.97
2023-05-21T11:42:34.070Z,100446.56
2023-05-21T11:45:04.372Z,100455.97
2023-05-21T11:47:33.622Z,100449.28
2023-05-21T11:50:03.484Z,100451.81
2023-05-21T11:52:33.339Z,100434.78
2023-05-21T11:55:02.157Z,100440.50
2023-05-21T11:57:31.444Z,100440.78
2023-05-21T12:00:01.744Z,100447.56
2023-05-21T12:02:34.582Z,100448.59
2023-05-21T12:05:03.543Z,100438.53
2023-05-21T12:07:32.705Z,100428.44
2023-05-21T12:10:01.545Z,100434.94
2023-05-21T12:12:42.224Z,100442.44
2023-05-21T12:15:20.895Z,100437.44
2023-05-21T12:17:53.367Z,100441.47
2023-05-21T12:20:22.296Z,100430.75
2023-05-21T12:22:51.546Z,100436.78
2023-05-21T12:25:21.366Z,100431.06
2023-05-21T12:27:58.403Z,100433.00
2023-05-21T12:30:27.656Z,100428.47
2023-05-21T12:32:59.626Z,100437.88
2023-05-21T12:35:28.575Z,100427.59
2023-05-21T12:37:57.965Z,100433.09
2023-05-21T12:40:39.542Z,100424.59
2023-05-21T12:43:09.472Z,100423.75
2023-05-21T12:45:39.634Z,100429.47
2023-05-21T12:48:09.188Z,100413.63
2023-05-21T12:50:41.052Z,100413.72
2023-05-21T12:53:12.165Z,100421.44
2023-05-21T12:55:41.321Z,100425.81
2023-05-21T12:58:13.420Z,100426.09
2023-05-21T13:00:44.212Z,100419.44
2023-05-21T13:03:14.724Z,100416.25
2023-05-21T13:05:43.672Z,100422.63
2023-05-21T13:08:14.555Z,100418.59
2023-05-21T13:10:43.470Z,100410.88
2023-05-21T13:13:12.645Z,100411.03
2023-05-21T13:15:41.621Z,100427.09
2023-05-21T13:18:12.645Z,100409.38
2023-05-21T13:20:41.528Z,100402.47
2023-05-21T13:23:11.829Z,100407.31
2023-05-21T13:25:41.149Z,100410.53
2023-05-21T13:28:15.453Z,100408.63
2023-05-21T13:30:44.394Z,100408.81
2023-05-21T13:33:13.894Z,100407.81
2023-05-21T13:35:42.654Z,100412.34
2023-05-21T13:38:11.743Z,100411.72
2023-05-21T13:40:40.935Z,100408.72
2023-05-21T13:43:10.173Z,100398.94
2023-05-21T13:45:39.196Z,100405.28
2023-05-21T13:48:08.390Z,100397.56
2023-05-21T13:50:37.404Z,100404.63
2023-05-21T13:53:06.718Z,100410.66
2023-05-21T13:55:35.527Z,100407.31
2023-05-21T13:58:04.810Z,100412.53
2023-05-21T14:00:33.672Z,100406.38
2023-05-21T14:03:03.132Z,100404.84
2023-05-21T14:05:32.068Z,100400.53
2023-05-21T14:08:01.805Z,100403.81
2023-05-21T14:10:30.297Z,100398.28
2023-05-21T14:13:11.255Z,100397.78
2023-05-21T14:15:48.866Z,100410.00
2023-05-21T14:18:18.074Z,100399.94
2023-05-21T14:20:46.920Z,100398.97
2023-05-21T14:23:15.914Z,100412.38
2023-05-21T14:25:44.577Z,100412.38
2023-05-21T14:28:13.534Z,100397.66
2023-05-21T14:30:42.082Z,100394.28
2023-05-21T14:33:13.772Z,100402.31
2023-05-21T14:35:44.473Z,100388.56
2023-05-21T14:38:13.433Z,100386.72
2023-05-21T14:40:42.265Z,100389.75
2023-05-21T14:43:11.284Z,100391.56
2023-05-21T14:45:40.108Z,100381.03
2023-05-21T14:48:09.477Z,100394.25
2023-05-21T14:50:41.424Z,100383.88
2023-05-21T14:53:11.664Z,100384.03
2023-05-21T14:55:40.618Z,100379.03
2023-05-21T14:58:09.945Z,100384.91
2023-05-21T15:00:39.209Z,100385.53
2023-05-21T15:03:08.628Z,100395.78
2023-05-21T15:05:37.698Z,100387.53
2023-05-21T15:08:08.282Z,100385.88
2023-05-21T15:10:36.781Z,100390.22
2023-05-21T15:13:05.754Z,100384.84
2023-05-21T15:15:34.197Z,100394.59
2023-05-21T15:18:03.044Z,100378.19
2023-05-21T15:20:31.823Z,100377.19
2023-05-21T15:25:32.764Z,100380.59
2023-05-21T15:28:01.446Z,100382.56
2023-05-21T15:30:29.950Z,100371.06
2023-05-21T15:32:58.973Z,100376.78
2023-05-21T15:35:27.837Z,100372.69
2023-05-21T15:37:56.859Z,100372.31
2023-05-21T15:40:27.025Z,100373.28
2023-05-21T15:42:56.394Z,100377.91
2023-05-21T15:45:25.309Z,100378.53
2023-05-21T15:47:54.777Z,100379.06
2023-05-21T15:50:23.511Z,100372.13
2023-05-21T15:52:53.526Z,100381.84
2023-05-21T15:55:22.513Z,100377.81
2023-05-21T15:57:51.350Z,100382.94
2023-05-21T16:00:19.968Z,100377.84
2023-05-21T16:02:48.215Z,100376.69
2023-05-21T16:05:17.038Z,100375.13
2023-05-21T16:07:46.792Z,100382.28
2023-05-21T16:10:15.999Z,100378.72
2023-05-21T16:12:44.805Z,100379.16
2023-05-21T16:15:13.526Z,100366.25
2023-05-21T16:17:41.924Z,100380.53
2023-05-21T16:20:11.407Z,100371.41
2023-05-21T16:22:40.606Z,100376.38
2023-05-21T16:25:09.992Z,100368.72
2023-05-21T16:27:38.880Z,100372.53
2023-05-21T16:30:08.498Z,100362.25
2023-05-21T16:32:36.991Z,100370.41
2023-05-21T16:35:07.245Z,100371.53
2023-05-21T16:37:35.818Z,100363.19
2023-05-21T16:40:05.133Z,100371.59
2023-05-21T16:42:33.576Z,100373.75
2023-05-21T16:45:02.554Z,100369.59
2023-05-21T16:47:31.053Z,100371.47
2023-05-21T16:50:01.412Z,100366.66
2023-05-21T16:52:29.928Z,100376.50
2023-05-21T16:54:58.578Z,100369.25
2023-05-21T16:57:26.916Z,100363.56
2023-05-21T16:59:55.756Z,100373.78
2023-05-21T17:02:25.002Z,100369.63
2023-05-21T17:04:53.829Z,100372.44
2023-05-21T17:07:22.119Z,100368.31
2023-05-21T17:09:50.748Z,100365.50
2023-05-21T17:12:19.289Z,100359.31
2023-05-21T17:14:48.338Z,100363.03
2023-05-21T17:17:17.040Z,100379.53
2023-05-21T17:19:45.871Z,100368.53
2023-05-21T17:22:14.999Z,100377.88
2023-05-21T17:24:43.957Z,100379.59
2023-05-21T17:27:12.552Z,100381.56
2023-05-21T17:29:41.702Z,100380.31
2023-05-21T17:32:11.291Z,100384.03
2023-05-21T17:34:40.037Z,100390.69
2023-05-21T17:37:08.380Z,100383.06
2023-05-21T17:39:37.094Z,100388.25
2023-05-21T17:42:06.127Z,100388.41
2023-05-21T17:44:34.819Z,100389.94
2023-05-21T17:47:03.466Z,100393.19
2023-05-21T17:49:32.349Z,100398.38
2023-05-21T17:52:03.216Z,100401.34
2023-05-21T17:54:32.075Z,100404.84
2023-05-21T17:57:00.450Z,100403.97
2023-05-21T17:59:29.281Z,100404.47
2023-05-21T18:02:01.489Z,100401.16
2023-05-21T18:04:30.351Z,100402.78
2023-05-21T18:06:58.703Z,100399.34
2023-05-21T18:09:27.444Z,100408.94
2023-05-21T18:11:55.735Z,100403.94
2023-05-21T18:14:24.396Z,100410.28
2023-05-21T18:16:52.885Z,100408.09
2023-05-21T18:19:22.140Z,100415.03
2023-05-21T18:21:50.573Z,100411.16
2023-05-21T18:24:19.232Z,100410.66
2023-05-21T18:26:49.062Z,100408.16
2023-05-21T18:29:17.704Z,100417.69
2023-05-21T18:31:46.112Z,100420.72
2023-05-21T18:34:17.032Z,100418.69
2023-05-21T18:36:45.404Z,100424.09
2023-05-21T18:39:14.293Z,100431.78
2023-05-21T18:41:42.888Z,100435.00
2023-05-21T18:44:12.945Z,100435.00
2023-05-21T18:46:41.372Z,100442.88
2023-05-21T18:49:10.416Z,100439.84
2023-05-21T18:51:38.946Z,100444.38
2023-05-21T18:54:08.619Z,100449.25
2023-05-21T18:56:37.176Z,100454.59
2023-05-21T18:59:06.075Z,100449.09
2023-05-21T19:01:34.706Z,100456.97
2023-05-21T19:04:04.746Z,100457.31
2023-05-21T19:06:33.341Z,100459.97
2023-05-21T19:09:02.856Z,100466.69
2023-05-21T19:11:34.533Z,100476.38
2023-05-21T19:14:03.926Z,100482.44
2023-05-21T19:16:32.417Z,100483.59
2023-05-21T19:19:02.346Z,100487.63
2023-05-21T19:21:31.614Z,100495.81
2023-05-21T19:24:01.288Z,100502.22
2023-05-21T19:26:30.699Z,100503.50
2023-05-21T19:29:00.323Z,100511.75
2023-05-21T19:31:28.782Z,100512.91
2023-05-21T19:33:58.326Z,100516.75
2023-05-21T19:36:32.589Z,100518.25
2023-05-21T19:39:07.796Z,100522.78
2023-05-21T19:41:36.825Z,100533.50
2023-05-21T19:44:05.618Z,100525.44
2023-05-21T19:46:34.397Z,100530.13
2023-05-21T19:49:03.304Z,100530.41
2023-05-21T19:51:31.946Z,100517.00
2023-05-21T19:54:00.715Z,100533.91
2023-05-21T19:56:29.666Z,100541.78
2023-05-21T19:58:58.505Z,100541.94
2023-05-21T20:01:29.251Z,100545.66
2023-05-21T20:03:58.891Z,100551.16
2023-05-21T20:06:27.583Z,100554.81
2023-05-21T20:08:56.577Z,100559.34
2023-05-21T20:11:25.153Z,100562.03
2023-05-21T20:13:54.555Z,100568.56
2023-05-21T20:16:23.426Z,100565.06
2023-05-21T20:18:57.206Z,100563.84
2023-05-21T20:21:25.726Z,100567.22
2023-05-21T20:23:54.648Z,100563.84
2023-05-21T20:26:23.390Z,100560.31
2023-05-21T20:28:52.126Z,100556.13
2023-05-21T20:31:22.021Z,100560.66
2023-05-21T20:33:52.502Z,100548.91
2023-05-21T20:36:21.447Z,100552.94
2023-05-21T20:38:50.613Z,100554.25
2023-05-21T20:41:20.240Z,100552.59
2023-05-21T20:43:49.124Z,100556.25
2023-05-21T20:46:17.758Z,100559.09
2023-05-21T20:48:47.483Z,100555.59
2023-05-21T20:51:16.019Z,100558.25
2023-05-21T20:53:44.808Z,100561.09
2023-05-21T20:56:14.923Z,100550.72
2023-05-21T20:58:44.161Z,100551.84
2023-05-21T21:01:14.700Z,100552.72
2023-05-21T21:03:46.039Z,100555.84
2023-05-21T21:06:19.040Z,100554.03
2023-05-21T21:08:50.414Z,100560.91
2023-05-21T21:11:19.050Z,100566.41
2023-05-21T21:13:48.020Z,100568.94
2023-05-21T21:16:16.670Z,100563.75
2023-05-21T21:18:47.213Z,100564.56
2023-05-21T21:21:15.810Z,100564.56
2023-05-21T21:23:44.621Z,100564.41
2023-05-21T21:26:13.102Z,100565.44
2023-05-21T21:28:42.014Z,100561.75
2023-05-21T21:31:10.572Z,100571.63
2023-05-21T21:33:39.375Z,100562.75
2023-05-21T21:36:08.187Z,100569.09
2023-05-21T21:38:36.984Z,100560.06
2023-05-21T21:41:05.608Z,100557.56
2023-05-21T21:43:34.787Z,100565.59
2023-05-21T21:46:03.377Z,100569.91
2023-05-21T21:48:32.272Z,100565.75
2023-05-21T21:51:00.825Z,100564.91
2023-05-21T21:53:29.589Z,100568.56
2023-05-21T21:55:58.155Z,100568.56
2023-05-21T21:58:27.040Z,100566.91
2023-05-21T22:00:55.761Z,100568.91
2023-05-21T22:03:24.577Z,100561.84
2023-05-21T22:05:55.395Z,100561.19
2023-05-21T22:08:25.753Z,100562.19
2023-05-21T22:10:54.267Z,100566.53
2023-05-21T22:13:23.022Z,100565.53
2023-05-21T22:15:51.895Z,100563.03
2023-05-21T22:18:31.927Z,100571.22
2023-05-21T22:21:10.205Z,100566.88
2023-05-21T22:23:39.851Z,100571.22
2023-05-21T22:26:09.345Z,100568.53
2023-05-21T22:28:38.396Z,100571.50
2023-05-21T22:31:07.871Z,100567.84
2023-05-21T22:33:36.907Z,100563.47
2023-05-21T22:36:06.377Z,100566.16
2023-05-21T22:38:35.189Z,100571.50
2023-05-21T22:41:03.965Z,100564.13
2023-05-21T22:43:34.976Z,100572.16
2023-05-21T22:46:03.799Z,100575.50
2023-05-21T22:48:34.709Z,100577.50
2023-05-21T22:51:04.834Z,100573.84
2023-05-21T22:53:33.893Z,100570.50
2023-05-21T22:56:02.500Z,100561.78
2023-05-21T22:58:31.343Z,100568.50
2023-05-21T23:00:59.818Z,100572.16
2023-05-21T23:03:28.747Z,100567.81
2023-05-21T23:05:57.277Z,100577.50
2023-05-21T23:08:26.385Z,100563.78
2023-05-21T23:10:55.134Z,100573.00
2023-05-21T23:13:24.098Z,100575.84
2023-05-21T23:15:54.135Z,100576.66
2023-05-21T23:18:23.161Z,100580.19
2023-05-21T23:20:52.294Z,100569.47
2023-05-21T23:23:21.250Z,100571.16
2023-05-21T23:25:52.195Z,100566.66
2023-05-21T23:28:21.508Z,100577.19
2023-05-21T23:30:50.267Z,100563.63
2023-05-21T23:33:19.274Z,100570.84
2023-05-21T23:35:47.868Z,100577.72
2023-05-21T23:38:16.949Z,100575.19
2023-05-21T23:40:45.639Z,100572.22
2023-05-21T23:43:14.591Z,100568.53
2023-05-21T23:45:43.244Z,100572.91
2023-05-21T23:48:12.274Z,100563.03
2023-05-21T23:50:41.195Z,100565.53
2023-05-21T23:53:10.576Z,100560.19
2023-05-21T23:55:39.325Z,100560.19
2023-05-21T23:58:08.222Z,100560.19
